sensor_id;sensor_type;location;lat;lon;timestamp;pressure;altitude;pressure_sealevel;temperature;humidity
29879;BME280;16752;53.364;-1.488;2023-04-27T00:00:31;100662.91;;;13.52;41.22
29879;BME280;16752;53.364;-1.488;2023-04-27T00:03:15;100550.13;;;12.87;41.46
29879;BME280;16752;53.364;-1.488;2023-04-27T00:05:59;100584.25;;;12.99;41.13
29879;BME280;16752;53.364;-1.488;2023-04-27T00:08:43;100560.16;;;12.81;41.25
29879;BME280;16752;53.364;-1.488;2023-04-27T00:11:27;100672.41;;;13.41;41.58
29879;BME280;16752;53.364;-1.488;2023-04-27T00:14:11;100580.50;;;12.91;41.08
29879;BME280;16752;53.364;-1.488;2023-04-27T00:16:55;100590.28;;;13.01;41.23
29879;BME280;16752;53.364;-1.488;2023-04-27T00:19:39;100628.28;;;13.21;41.34
29879;BME280;16752;53.364;-1.488;2023-04-27T00:22:24;100631.34;;;13.28;40.97
29879;BME280;16752;53.364;-1.488;2023-04-27T00:25:09;100543.00;;;12.76;41.02
29879;BME280;16752;53.364;-1.488;2023-04-27T00:27:53;100643.44;;;13.30;41.35
29879;BME280;16752;53.364;-1.488;2023-04-27T00:30:38;100549.00;;;12.78;41.08
29879;BME280;16752;53.364;-1.488;2023-04-27T00:33:21;100593.41;;;13.06;41.25
29879;BME280;16752;53.364;-1.488;2023-04-27T00:36:06;100630.03;;;13.33;41.31
29879;BME280;16752;53.364;-1.488;2023-04-27T00:38:50;100636.03;;;13.35;41.24
29879;BME280;16752;53.364;-1.488;2023-04-27T00:41:38;100520.34;;;12.62;41.18
29879;BME280;16752;53.364;-1.488;2023-04-27T00:44:24;100593.28;;;13.08;41.43
29879;BME280;16752;53.364;-1.488;2023-04-27T00:47:09;100585.00;;;13.01;41.42
29879;BME280;16752;53.364;-1.488;2023-04-27T00:49:55;100564.72;;;12.91;41.41
29879;BME280;16752;53.364;-1.488;2023-04-27T00:52:39;100643.69;;;13.38;41.33
29879;BME280;16752;53.364;-1.488;2023-04-27T00:55:24;100613.88;;;13.27;41.31
29879;BME280;16752;53.364;-1.488;2023-04-27T00:58:08;100596.38;;;13.02;41.59
29879;BME280;16752;53.364;-1.488;2023-04-27T01:00:53;100556.13;;;12.89;41.61
29879;BME280;16752;53.364;-1.488;2023-04-27T01:03:37;100575.13;;;12.92;42.03
29879;BME280;16752;53.364;-1.488;2023-04-27T01:06:21;100558.88;;;12.87;41.58
29879;BME280;16752;53.364;-1.488;2023-04-27T01:09:05;100581.00;;;12.96;42.05
29879;BME280;16752;53.364;-1.488;2023-04-27T01:11:49;100618.56;;;13.34;41.56
29879;BME280;16752;53.364;-1.488;2023-04-27T01:14:35;100633.34;;;13.24;42.09
29879;BME280;16752;53.364;-1.488;2023-04-27T01:17:19;100542.06;;;12.77;41.96
29879;BME280;16752;53.364;-1.488;2023-04-27T01:20:04;100574.56;;;13.00;41.75
29879;BME280;16752;53.364;-1.488;2023-04-27T01:22:50;100584.13;;;13.01;41.65
29879;BME280;16752;53.364;-1.488;2023-04-27T01:25:34;100574.06;;;12.95;41.64
29879;BME280;16752;53.364;-1.488;2023-04-27T01:28:18;100499.03;;;12.54;41.92
29879;BME280;16752;53.364;-1.488;2023-04-27T01:31:02;100592.78;;;13.03;42.22
29879;BME280;16752;53.364;-1.488;2023-04-27T01:33:46;100473.03;;;12.38;41.69
29879;BME280;16752;53.364;-1.488;2023-04-27T01:36:30;100606.94;;;13.13;42.18
29879;BME280;16752;53.364;-1.488;2023-04-27T01:39:15;100540.94;;;12.68;42.17
29879;BME280;16752;53.364;-1.488;2023-04-27T01:41:59;100530.88;;;12.62;42.24
29879;BME280;16752;53.364;-1.488;2023-04-27T01:44:43;100537.19;;;12.60;42.37
29879;BME280;16752;53.364;-1.488;2023-04-27T01:47:27;100628.09;;;13.11;42.45
29879;BME280;16752;53.364;-1.488;2023-04-27T01:50:11;100548.66;;;12.59;42.43
29879;BME280;16752;53.364;-1.488;2023-04-27T01:53:00;100553.56;;;12.63;42.32
29879;BME280;16752;53.364;-1.488;2023-04-27T01:55:44;100636.31;;;13.07;42.62
29879;BME280;16752;53.364;-1.488;2023-04-27T01:58:28;100533.63;;;12.48;42.51
29879;BME280;16752;53.364;-1.488;2023-04-27T02:01:13;100533.13;;;12.43;42.75
29879;BME280;16752;53.364;-1.488;2023-04-27T02:03:57;100592.94;;;12.76;42.83
29879;BME280;16752;53.364;-1.488;2023-04-27T02:06:41;100617.31;;;12.91;42.58
29879;BME280;16752;53.364;-1.488;2023-04-27T02:09:25;100570.81;;;12.54;42.33
29879;BME280;16752;53.364;-1.488;2023-04-27T02:12:10;100524.53;;;12.28;42.33
29879;BME280;16752;53.364;-1.488;2023-04-27T02:14:54;100536.81;;;12.28;42.35
29879;BME280;16752;53.364;-1.488;2023-04-27T02:17:39;100555.59;;;12.47;42.46
29879;BME280;16752;53.364;-1.488;2023-04-27T02:20:29;100512.47;;;12.13;42.44
29879;BME280;16752;53.364;-1.488;2023-04-27T02:23:13;100570.03;;;12.41;42.78
29879;BME280;16752;53.364;-1.488;2023-04-27T02:25:57;100557.59;;;12.43;42.56
29879;BME280;16752;53.364;-1.488;2023-04-27T02:28:41;100586.56;;;12.67;42.47
29879;BME280;16752;53.364;-1.488;2023-04-27T02:31:25;100548.06;;;12.42;42.47
29879;BME280;16752;53.364;-1.488;2023-04-27T02:34:10;100558.78;;;12.39;42.76
29879;BME280;16752;53.364;-1.488;2023-04-27T02:36:54;100548.16;;;12.41;42.48
29879;BME280;16752;53.364;-1.488;2023-04-27T02:39:37;100578.41;;;12.59;43.04
29879;BME280;16752;53.364;-1.488;2023-04-27T02:42:24;100550.47;;;12.45;42.63
29879;BME280;16752;53.364;-1.488;2023-04-27T02:45:09;100546.53;;;12.51;42.48
29879;BME280;16752;53.364;-1.488;2023-04-27T02:47:53;100458.53;;;11.96;42.57
29879;BME280;16752;53.364;-1.488;2023-04-27T02:50:40;100530.94;;;12.37;42.45
29879;BME280;16752;53.364;-1.488;2023-04-27T02:53:25;100564.09;;;12.50;42.85
29879;BME280;16752;53.364;-1.488;2023-04-27T02:56:09;100485.19;;;12.03;42.67
29879;BME280;16752;53.364;-1.488;2023-04-27T02:58:53;100529.88;;;12.27;42.72
29879;BME280;16752;53.364;-1.488;2023-04-27T03:01:40;100472.69;;;11.81;42.85
29879;BME280;16752;53.364;-1.488;2023-04-27T03:04:26;100574.00;;;12.47;42.79
29879;BME280;16752;53.364;-1.488;2023-04-27T03:07:10;100548.38;;;12.25;42.65
29879;BME280;16752;53.364;-1.488;2023-04-27T03:09:55;100517.72;;;12.13;42.78
29879;BME280;16752;53.364;-1.488;2023-04-27T03:12:42;100522.00;;;12.14;42.80
29879;BME280;16752;53.364;-1.488;2023-04-27T03:15:29;100498.31;;;12.03;43.07
29879;BME280;16752;53.364;-1.488;2023-04-27T03:18:15;100481.41;;;11.94;42.94
29879;BME280;16752;53.364;-1.488;2023-04-27T03:21:10;100475.50;;;12.03;43.03
29879;BME280;16752;53.364;-1.488;2023-04-27T03:24:02;100557.06;;;12.51;42.80
29879;BME280;16752;53.364;-1.488;2023-04-27T03:26:46;100529.03;;;12.39;42.74
29879;BME280;16752;53.364;-1.488;2023-04-27T03:29:30;100588.25;;;12.68;43.01
29879;BME280;16752;53.364;-1.488;2023-04-27T03:32:17;100517.47;;;12.29;42.89
29879;BME280;16752;53.364;-1.488;2023-04-27T03:35:04;100581.09;;;12.70;42.60
29879;BME280;16752;53.364;-1.488;2023-04-27T03:37:48;100472.66;;;12.06;42.50
29879;BME280;16752;53.364;-1.488;2023-04-27T03:40:32;100489.16;;;12.21;42.70
29879;BME280;16752;53.364;-1.488;2023-04-27T03:43:19;100534.34;;;12.50;42.81
29879;BME280;16752;53.364;-1.488;2023-04-27T03:46:10;100449.25;;;12.03;42.81
29879;BME280;16752;53.364;-1.488;2023-04-27T03:48:54;100441.38;;;12.03;42.78
29879;BME280;16752;53.364;-1.488;2023-04-27T03:51:39;100460.59;;;12.16;42.89
29879;BME280;16752;53.364;-1.488;2023-04-27T03:54:25;100461.72;;;12.25;43.00
29879;BME280;16752;53.364;-1.488;2023-04-27T03:57:09;100576.06;;;13.04;42.94
29879;BME280;16752;53.364;-1.488;2023-04-27T04:00:04;100491.22;;;12.65;43.10
29879;BME280;16752;53.364;-1.488;2023-04-27T04:02:51;100450.22;;;12.39;42.83
29879;BME280;16752;53.364;-1.488;2023-04-27T04:05:45;100471.81;;;12.55;42.82
29879;BME280;16752;53.364;-1.488;2023-04-27T04:08:34;100434.16;;;12.31;42.92
29879;BME280;16752;53.364;-1.488;2023-04-27T04:11:30;100562.06;;;13.03;43.15
29879;BME280;16752;53.364;-1.488;2023-04-27T04:14:19;100580.97;;;13.08;43.20
29879;BME280;16752;53.364;-1.488;2023-04-27T04:17:22;100465.28;;;12.61;43.21
29879;BME280;16752;53.364;-1.488;2023-04-27T04:20:19;100550.88;;;13.12;42.90
29879;BME280;16752;53.364;-1.488;2023-04-27T04:23:09;100471.59;;;12.58;43.04
29879;BME280;16752;53.364;-1.488;2023-04-27T04:26:03;100445.34;;;12.45;43.07
29879;BME280;16752;53.364;-1.488;2023-04-27T04:29:06;100426.63;;;12.26;43.45
29879;BME280;16752;53.364;-1.488;2023-04-27T04:31:54;100462.13;;;12.55;43.40
29879;BME280;16752;53.364;-1.488;2023-04-27T04:35:08;100460.03;;;12.61;43.08
29879;BME280;16752;53.364;-1.488;2023-04-27T04:38:22;100450.25;;;12.63;42.87
29879;BME280;16752;53.364;-1.488;2023-04-27T04:41:26;100448.84;;;12.70;42.78
29879;BME280;16752;53.364;-1.488;2023-04-27T04:44:34;100499.38;;;12.97;43.32
29879;BME280;16752;53.364;-1.488;2023-04-27T04:47:20;100476.53;;;12.87;43.56
29879;BME280;16752;53.364;-1.488;2023-04-27T04:50:20;100472.38;;;12.95;43.21
29879;BME280;16752;53.364;-1.488;2023-04-27T04:56:53;100553.56;;;13.48;42.89
29879;BME280;16752;53.364;-1.488;2023-04-27T04:59:44;100445.50;;;12.79;43.04
29879;BME280;16752;53.364;-1.488;2023-04-27T05:02:42;100512.59;;;13.32;42.72
29879;BME280;16752;53.364;-1.488;2023-04-27T05:05:47;100497.38;;;13.25;43.00
29879;BME280;16752;53.364;-1.488;2023-04-27T05:08:33;100479.47;;;13.30;42.61
29879;BME280;16752;53.364;-1.488;2023-04-27T05:11:20;100461.16;;;13.28;42.39
29879;BME280;16752;53.364;-1.488;2023-04-27T05:14:08;100498.66;;;13.54;42.43
29879;BME280;16752;53.364;-1.488;2023-04-27T05:16:53;100543.72;;;13.96;42.43
29879;BME280;16752;53.364;-1.488;2023-04-27T05:19:40;100453.03;;;13.42;41.93
29879;BME280;16752;53.364;-1.488;2023-04-27T05:22:45;100495.09;;;13.66;41.68
29879;BME280;16752;53.364;-1.488;2023-04-27T05:25:32;100523.75;;;13.93;41.09
29879;BME280;16752;53.364;-1.488;2023-04-27T05:28:19;100509.59;;;13.83;40.80
29879;BME280;16752;53.364;-1.488;2023-04-27T05:31:12;100470.34;;;13.80;40.58
29879;BME280;16752;53.364;-1.488;2023-04-27T05:33:56;100472.47;;;13.86;39.96
29879;BME280;16752;53.364;-1.488;2023-04-27T05:36:40;100563.53;;;14.35;39.90
29879;BME280;16752;53.364;-1.488;2023-04-27T05:39:27;100579.66;;;13.97;40.99
29879;BME280;16752;53.364;-1.488;2023-04-27T05:42:11;100518.47;;;14.16;39.84
29879;BME280;16752;53.364;-1.488;2023-04-27T05:44:56;100503.38;;;14.29;39.08
29879;BME280;16752;53.364;-1.488;2023-04-27T05:47:39;100457.41;;;13.99;39.89
29879;BME280;16752;53.364;-1.488;2023-04-27T05:50:24;100509.47;;;14.63;39.36
29879;BME280;16752;53.364;-1.488;2023-04-27T05:53:08;100578.72;;;14.87;39.73
29879;BME280;16752;53.364;-1.488;2023-04-27T05:55:52;100516.09;;;14.35;39.89
29879;BME280;16752;53.364;-1.488;2023-04-27T05:58:36;100482.91;;;14.21;39.67
29879;BME280;16752;53.364;-1.488;2023-04-27T06:01:20;100545.63;;;15.15;38.89
29879;BME280;16752;53.364;-1.488;2023-04-27T06:04:04;100509.91;;;15.11;38.62
29879;BME280;16752;53.364;-1.488;2023-04-27T06:06:49;100496.16;;;15.08;38.21
29879;BME280;16752;53.364;-1.488;2023-04-27T06:09:33;100544.06;;;15.24;38.32
29879;BME280;16752;53.364;-1.488;2023-04-27T06:12:17;100552.56;;;15.27;38.68
29879;BME280;16752;53.364;-1.488;2023-04-27T06:15:00;100509.06;;;15.43;37.92
29879;BME280;16752;53.364;-1.488;2023-04-27T06:17:50;100499.13;;;15.56;37.68
29879;BME280;16752;53.364;-1.488;2023-04-27T06:20:34;100515.34;;;15.31;38.29
29879;BME280;16752;53.364;-1.488;2023-04-27T06:23:19;100485.56;;;14.87;38.57
29879;BME280;16752;53.364;-1.488;2023-04-27T06:26:03;100517.13;;;15.41;38.30
29879;BME280;16752;53.364;-1.488;2023-04-27T06:28:47;100515.44;;;15.61;37.86
29879;BME280;16752;53.364;-1.488;2023-04-27T06:31:31;100514.75;;;15.06;38.64
29879;BME280;16752;53.364;-1.488;2023-04-27T06:34:15;100521.19;;;15.87;37.66
29879;BME280;16752;53.364;-1.488;2023-04-27T06:37:01;100528.88;;;15.58;37.45
29879;BME280;16752;53.364;-1.488;2023-04-27T06:39:46;100449.94;;;15.55;36.69
29879;BME280;16752;53.364;-1.488;2023-04-27T06:42:30;100537.94;;;16.28;37.53
29879;BME280;16752;53.364;-1.488;2023-04-27T06:45:14;100442.63;;;15.89;36.80
29879;BME280;16752;53.364;-1.488;2023-04-27T06:47:58;100499.00;;;16.30;36.83
29879;BME280;16752;53.364;-1.488;2023-04-27T06:50:42;100545.53;;;15.70;37.60
29879;BME280;16752;53.364;-1.488;2023-04-27T06:53:38;100442.28;;;15.73;37.19
29879;BME280;16752;53.364;-1.488;2023-04-27T06:56:22;100502.53;;;16.19;36.49
29879;BME280;16752;53.364;-1.488;2023-04-27T06:59:07;100453.63;;;15.43;37.25
29879;BME280;16752;53.364;-1.488;2023-04-27T07:01:51;100549.03;;;15.70;38.14
29879;BME280;16752;53.364;-1.488;2023-04-27T07:04:38;100544.72;;;16.20;36.88
29879;BME280;16752;53.364;-1.488;2023-04-27T07:07:24;100506.69;;;16.12;37.38
29879;BME280;16752;53.364;-1.488;2023-04-27T07:10:08;100488.91;;;16.14;36.74
29879;BME280;16752;53.364;-1.488;2023-04-27T07:12:53;100541.03;;;16.42;36.72
29879;BME280;16752;53.364;-1.488;2023-04-27T07:15:40;100507.31;;;15.95;37.26
29879;BME280;16752;53.364;-1.488;2023-04-27T07:18:24;100465.03;;;16.35;36.15
29879;BME280;16752;53.364;-1.488;2023-04-27T07:21:10;100478.53;;;16.72;35.52
29879;BME280;16752;53.364;-1.488;2023-04-27T07:23:57;100426.88;;;15.57;37.96
29879;BME280;16752;53.364;-1.488;2023-04-27T07:26:41;100418.13;;;14.07;39.51
29879;BME280;16752;53.364;-1.488;2023-04-27T07:29:25;100422.91;;;15.00;38.60
29879;BME280;16752;53.364;-1.488;2023-04-27T07:32:11;100494.00;;;15.75;37.90
29879;BME280;16752;53.364;-1.488;2023-04-27T07:34:55;100491.41;;;16.65;36.60
29879;BME280;16752;53.364;-1.488;2023-04-27T07:37:40;100451.00;;;16.34;36.18
29879;BME280;16752;53.364;-1.488;2023-04-27T07:40:27;100528.16;;;16.59;37.09
29879;BME280;16752;53.364;-1.488;2023-04-27T07:43:20;100488.25;;;16.71;36.91
29879;BME280;16752;53.364;-1.488;2023-04-27T07:46:06;100452.88;;;17.11;34.78
29879;BME280;16752;53.364;-1.488;2023-04-27T07:48:53;100432.13;;;15.06;37.78
29879;BME280;16752;53.364;-1.488;2023-04-27T07:51:38;100537.09;;;15.76;37.77
29879;BME280;16752;53.364;-1.488;2023-04-27T07:54:25;100453.59;;;16.74;35.46
29879;BME280;16752;53.364;-1.488;2023-04-27T07:57:10;100486.59;;;16.80;35.71
29879;BME280;16752;53.364;-1.488;2023-04-27T07:59:59;100505.09;;;16.00;36.92
29879;BME280;16752;53.364;-1.488;2023-04-27T08:02:46;100538.72;;;17.28;35.62
29879;BME280;16752;53.364;-1.488;2023-04-27T08:05:30;100503.75;;;17.24;34.66
29879;BME280;16752;53.364;-1.488;2023-04-27T08:08:16;100469.63;;;16.92;35.60
29879;BME280;16752;53.364;-1.488;2023-04-27T08:11:20;100411.16;;;16.16;35.99
29879;BME280;16752;53.364;-1.488;2023-04-27T08:14:05;100442.41;;;15.50;37.35
29879;BME280;16752;53.364;-1.488;2023-04-27T08:16:59;100460.84;;;16.72;35.79
29879;BME280;16752;53.364;-1.488;2023-04-27T08:19:43;100457.22;;;17.88;33.70
29879;BME280;16752;53.364;-1.488;2023-04-27T08:22:27;100522.94;;;17.65;34.57
29879;BME280;16752;53.364;-1.488;2023-04-27T08:25:19;100459.72;;;17.89;34.31
29879;BME280;16752;53.364;-1.488;2023-04-27T08:28:20;100512.63;;;18.46;34.15
29879;BME280;16752;53.364;-1.488;2023-04-27T08:31:04;100425.25;;;18.17;33.25
29879;BME280;16752;53.364;-1.488;2023-04-27T08:33:49;100441.63;;;16.80;35.74
29879;BME280;16752;53.364;-1.488;2023-04-27T08:36:37;100395.47;;;17.11;34.21
29879;BME280;16752;53.364;-1.488;2023-04-27T08:39:22;100454.84;;;17.19;35.36
29879;BME280;16752;53.364;-1.488;2023-04-27T08:42:13;100425.03;;;16.68;35.35
29879;BME280;16752;53.364;-1.488;2023-04-27T08:45:05;100458.50;;;15.47;37.70
29879;BME280;16752;53.364;-1.488;2023-04-27T08:47:57;100465.56;;;17.07;35.14
29879;BME280;16752;53.364;-1.488;2023-04-27T08:50:46;100413.34;;;17.00;35.10
29879;BME280;16752;53.364;-1.488;2023-04-27T08:53:33;100441.84;;;17.35;35.79
29879;BME280;16752;53.364;-1.488;2023-04-27T08:56:18;100448.13;;;17.24;36.00
29879;BME280;16752;53.364;-1.488;2023-04-27T08:59:02;100464.75;;;16.97;35.65
29879;BME280;16752;53.364;-1.488;2023-04-27T09:01:57;100379.28;;;16.18;36.71
29879;BME280;16752;53.364;-1.488;2023-04-27T09:04:41;100405.50;;;17.08;35.50
29879;BME280;16752;53.364;-1.488;2023-04-27T09:07:25;100368.25;;;17.38;35.29
29879;BME280;16752;53.364;-1.488;2023-04-27T09:10:09;100412.94;;;17.61;35.98
29879;BME280;16752;53.364;-1.488;2023-04-27T09:12:59;100435.88;;;18.98;33.57
29879;BME280;16752;53.364;-1.488;2023-04-27T09:15:46;100357.44;;;17.59;35.77
29879;BME280;16752;53.364;-1.488;2023-04-27T09:18:35;100352.59;;;16.89;36.43
29879;BME280;16752;53.364;-1.488;2023-04-27T09:21:25;100348.03;;;16.62;36.94
29879;BME280;16752;53.364;-1.488;2023-04-27T09:24:12;100337.22;;;18.13;35.07
29879;BME280;16752;53.364;-1.488;2023-04-27T09:26:57;100346.34;;;18.28;34.37
29879;BME280;16752;53.364;-1.488;2023-04-27T09:29:41;100433.34;;;17.41;35.75
29879;BME280;16752;53.364;-1.488;2023-04-27T09:32:25;100370.59;;;17.88;34.67
29879;BME280;16752;53.364;-1.488;2023-04-27T09:35:27;100457.91;;;18.17;34.46
29879;BME280;16752;53.364;-1.488;2023-04-27T09:38:17;100366.22;;;17.60;34.54
29879;BME280;16752;53.364;-1.488;2023-04-27T09:41:07;100368.00;;;17.79;34.38
29879;BME280;16752;53.364;-1.488;2023-04-27T09:43:56;100358.75;;;17.46;34.54
29879;BME280;16752;53.364;-1.488;2023-04-27T09:46:45;100386.72;;;17.95;33.73
29879;BME280;16752;53.364;-1.488;2023-04-27T09:49:34;100422.66;;;17.80;34.04
29879;BME280;16752;53.364;-1.488;2023-04-27T09:52:19;100398.41;;;18.29;32.39
29879;BME280;16752;53.364;-1.488;2023-04-27T09:55:42;100358.69;;;17.65;34.35
29879;BME280;16752;53.364;-1.488;2023-04-27T10:01:54;100365.06;;;18.62;32.61
29879;BME280;16752;53.364;-1.488;2023-04-27T10:04:44;100420.00;;;19.06;32.84
29879;BME280;16752;53.364;-1.488;2023-04-27T10:07:44;100331.41;;;18.63;32.50
29879;BME280;16752;53.364;-1.488;2023-04-27T10:10:29;100414.59;;;19.33;32.95
29879;BME280;16752;53.364;-1.488;2023-04-27T10:13:22;100308.09;;;19.52;31.63
29879;BME280;16752;53.364;-1.488;2023-04-27T10:16:16;100422.16;;;21.46;29.99
29879;BME280;16752;53.364;-1.488;2023-04-27T10:19:08;100383.06;;;20.97;31.50
29879;BME280;16752;53.364;-1.488;2023-04-27T10:21:56;100381.72;;;20.77;30.24
29879;BME280;16752;53.364;-1.488;2023-04-27T10:24:48;100324.13;;;19.69;31.45
29879;BME280;16752;53.364;-1.488;2023-04-27T10:27:38;100314.38;;;19.86;30.49
29879;BME280;16752;53.364;-1.488;2023-04-27T10:30:24;100374.50;;;20.37;30.43
29879;BME280;16752;53.364;-1.488;2023-04-27T10:33:18;100303.94;;;19.16;30.89
29879;BME280;16752;53.364;-1.488;2023-04-27T10:36:13;100370.22;;;18.64;33.00
29879;BME280;16752;53.364;-1.488;2023-04-27T10:38:59;100317.59;;;17.51;33.20
29879;BME280;16752;53.364;-1.488;2023-04-27T10:42:28;100424.56;;;19.13;31.99
29879;BME280;16752;53.364;-1.488;2023-04-27T10:45:34;100350.06;;;17.90;32.86
29879;BME280;16752;53.364;-1.488;2023-04-27T10:48:23;100298.03;;;18.78;32.03
29879;BME280;16752;53.364;-1.488;2023-04-27T10:51:07;100300.16;;;19.27;31.60
29879;BME280;16752;53.364;-1.488;2023-04-27T10:53:51;100353.66;;;19.32;31.19
29879;BME280;16752;53.364;-1.488;2023-04-27T10:56:36;100386.44;;;18.97;32.79
29879;BME280;16752;53.364;-1.488;2023-04-27T10:59:20;100314.00;;;19.38;30.97
29879;BME280;16752;53.364;-1.488;2023-04-27T11:02:10;100312.91;;;18.18;33.51
29879;BME280;16752;53.364;-1.488;2023-04-27T11:05:00;100361.56;;;18.26;32.90
29879;BME280;16752;53.364;-1.488;2023-04-27T11:07:51;100344.75;;;18.89;32.30
29879;BME280;16752;53.364;-1.488;2023-04-27T11:11:19;100334.81;;;18.91;32.00
29879;BME280;16752;53.364;-1.488;2023-04-27T11:14:03;100282.72;;;19.24;31.44
29879;BME280;16752;53.364;-1.488;2023-04-27T11:16:48;100364.19;;;18.72;32.88
29879;BME280;16752;53.364;-1.488;2023-04-27T11:19:48;100361.41;;;18.99;32.43
29879;BME280;16752;53.364;-1.488;2023-04-27T11:29:15;100279.34;;;17.63;34.07
29879;BME280;16752;53.364;-1.488;2023-04-27T11:31:59;100230.13;;;18.93;30.95
29879;BME280;16752;53.364;-1.488;2023-04-27T11:34:48;100324.38;;;18.98;31.10
29879;BME280;16752;53.364;-1.488;2023-04-27T11:37:42;100214.22;;;19.02;30.52
29879;BME280;16752;53.364;-1.488;2023-04-27T11:40:26;100261.75;;;17.45;33.29
29879;BME280;16752;53.364;-1.488;2023-04-27T11:43:16;100235.19;;;17.36;33.34
29879;BME280;16752;53.364;-1.488;2023-04-27T11:46:03;100257.09;;;18.01;32.87
29879;BME280;16752;53.364;-1.488;2023-04-27T11:48:48;100312.88;;;19.83;30.95
29879;BME280;16752;53.364;-1.488;2023-04-27T11:51:41;100265.25;;;20.30;30.27
29879;BME280;16752;53.364;-1.488;2023-04-27T11:54:27;100315.69;;;20.72;30.15
29879;BME280;16752;53.364;-1.488;2023-04-27T11:57:12;100264.09;;;19.16;31.24
29879;BME280;16752;53.364;-1.488;2023-04-27T12:00:03;100246.06;;;19.70;30.93
29879;BME280;16752;53.364;-1.488;2023-04-27T12:03:19;100250.16;;;19.14;30.96
29879;BME280;16752;53.364;-1.488;2023-04-27T12:06:15;100227.50;;;18.50;31.34
29879;BME280;16752;53.364;-1.488;2023-04-27T12:09:01;100204.00;;;18.81;30.43
29879;BME280;16752;53.364;-1.488;2023-04-27T12:11:50;100256.28;;;18.62;30.72
29879;BME280;16752;53.364;-1.488;2023-04-27T12:14:38;100183.63;;;17.76;31.53
29879;BME280;16752;53.364;-1.488;2023-04-27T12:17:31;100237.44;;;19.34;30.29
29879;BME280;16752;53.364;-1.488;2023-04-27T12:20:15;100236.38;;;17.69;32.96
29879;BME280;16752;53.364;-1.488;2023-04-27T12:23:00;100183.38;;;18.67;31.38
29879;BME280;16752;53.364;-1.488;2023-04-27T12:25:45;100179.47;;;19.29;30.72
29879;BME280;16752;53.364;-1.488;2023-04-27T12:28:30;100210.88;;;20.00;29.68
29879;BME280;16752;53.364;-1.488;2023-04-27T12:31:15;100296.72;;;20.84;29.49
29879;BME280;16752;53.364;-1.488;2023-04-27T12:34:02;100249.41;;;19.04;30.94
29879;BME280;16752;53.364;-1.488;2023-04-27T12:36:50;100240.13;;;20.08;30.40
29879;BME280;16752;53.364;-1.488;2023-04-27T12:39:34;100266.00;;;19.74;30.31
29879;BME280;16752;53.364;-1.488;2023-04-27T12:42:38;100300.91;;;19.87;31.08
29879;BME280;16752;53.364;-1.488;2023-04-27T12:45:26;100247.03;;;19.61;30.73
29879;BME280;16752;53.364;-1.488;2023-04-27T12:48:10;100281.06;;;20.72;29.24
29879;BME280;16752;53.364;-1.488;2023-04-27T12:50:55;100187.63;;;20.02;29.84
29879;BME280;16752;53.364;-1.488;2023-04-27T12:53:39;100207.69;;;19.22;30.19
29879;BME280;16752;53.364;-1.488;2023-04-27T12:56:24;100259.69;;;18.73;31.85
29879;BME280;16752;53.364;-1.488;2023-04-27T12:59:08;100215.47;;;19.58;30.62
29879;BME280;16752;53.364;-1.488;2023-04-27T13:01:53;100189.59;;;19.92;29.98
29879;BME280;16752;53.364;-1.488;2023-04-27T13:04:39;100240.13;;;19.08;30.62
29879;BME280;16752;53.364;-1.488;2023-04-27T13:07:25;100265.31;;;18.52;31.66
29879;BME280;16752;53.364;-1.488;2023-04-27T13:10:09;100196.44;;;16.71;33.43
29879;BME280;16752;53.364;-1.488;2023-04-27T13:12:54;100234.81;;;17.94;32.18
29879;BME280;16752;53.364;-1.488;2023-04-27T13:15:39;100231.31;;;17.76;32.75
29879;BME280;16752;53.364;-1.488;2023-04-27T13:18:23;100166.88;;;18.11;31.86
29879;BME280;16752;53.364;-1.488;2023-04-27T13:21:07;100188.88;;;18.73;31.64
29879;BME280;16752;53.364;-1.488;2023-04-27T13:23:51;100187.16;;;19.32;30.24
29879;BME280;16752;53.364;-1.488;2023-04-27T13:26:37;100159.09;;;17.92;31.99
29879;BME280;16752;53.364;-1.488;2023-04-27T13:29:21;100161.59;;;18.37;31.70
29879;BME280;16752;53.364;-1.488;2023-04-27T13:32:15;100131.94;;;18.16;30.88
29879;BME280;16752;53.364;-1.488;2023-04-27T13:35:00;100256.91;;;18.82;31.14
29879;BME280;16752;53.364;-1.488;2023-04-27T13:37:44;100154.78;;;19.45;30.15
29879;BME280;16752;53.364;-1.488;2023-04-27T13:40:31;100180.47;;;19.78;30.21
29879;BME280;16752;53.364;-1.488;2023-04-27T13:43:16;100213.53;;;19.84;29.82
29879;BME280;16752;53.364;-1.488;2023-04-27T13:46:01;100247.44;;;20.06;30.66
29879;BME280;16752;53.364;-1.488;2023-04-27T13:48:45;100196.06;;;20.71;29.25
29879;BME280;16752;53.364;-1.488;2023-04-27T13:51:30;100208.38;;;20.31;29.71
29879;BME280;16752;53.364;-1.488;2023-04-27T13:54:34;100203.94;;;19.41;31.24
29879;BME280;16752;53.364;-1.488;2023-04-27T13:57:19;100233.34;;;20.63;30.25
29879;BME280;16752;53.364;-1.488;2023-04-27T14:00:05;100176.13;;;20.10;30.46
29879;BME280;16752;53.364;-1.488;2023-04-27T14:02:54;100232.44;;;20.95;29.71
29879;BME280;16752;53.364;-1.488;2023-04-27T14:06:13;100134.66;;;18.50;32.14
29879;BME280;16752;53.364;-1.488;2023-04-27T14:09:06;100163.47;;;18.45;32.74
29879;BME280;16752;53.364;-1.488;2023-04-27T14:11:52;100106.53;;;18.05;33.37
29879;BME280;16752;53.364;-1.488;2023-04-27T14:14:39;100154.94;;;18.33;33.41
29879;BME280;16752;53.364;-1.488;2023-04-27T14:17:27;100167.69;;;19.23;32.46
29879;BME280;16752;53.364;-1.488;2023-04-27T14:20:35;100172.09;;;18.47;33.49
29879;BME280;16752;53.364;-1.488;2023-04-27T14:23:20;100130.66;;;19.22;32.59
29879;BME280;16752;53.364;-1.488;2023-04-27T14:26:04;100117.38;;;18.72;32.90
29879;BME280;16752;53.364;-1.488;2023-04-27T14:28:52;100157.41;;;18.60;33.35
29879;BME280;16752;53.364;-1.488;2023-04-27T14:31:45;100210.56;;;18.95;33.29
29879;BME280;16752;53.364;-1.488;2023-04-27T14:34:29;100117.28;;;18.29;33.57
29879;BME280;16752;53.364;-1.488;2023-04-27T14:37:13;100136.25;;;19.86;31.65
29879;BME280;16752;53.364;-1.488;2023-04-27T14:39:57;100134.44;;;19.53;31.33